1863 Hurricane NOT_NAMED (1863145N27272)


IBTrACS version v04r00. Visit IBTrACS website for data access.
Please direct all questions to the IBTrACS Q and A forum

Storm track - Intensity - Wind Radii - Intensity Data - Source Data - All data

Summary Information

Storm ID 1863145N27272
Start May 24 18Z
Landfall May 28 15Z
Max Intensity 90 kt (May 28 12Z), 968 mb (May 28 12Z)
End May 31 00Z
ATCF IDs
Track status Best track data.

Storm track plot

Map of storm track

Intensity plots

Map of storm track

Radial wind information

No radial wind information for this storm


Position and Intensity Table

BASIN ISO_TIME_________ NATURE LAT LON MLC WIND MLC PRES
degrees north degrees east kts mb
NA 1863-05-24 18:00:00 TS 27.00 -88.00 30
NA 21:00:00 TS 26.95 -87.84 30
NA 1863-05-25 00:00:00 TS 26.90 -87.70 30
NA 03:00:00 TS 26.85 -87.59 30
NA 06:00:00 TS 26.80 -87.50 30
NA 09:00:00 TS 26.74 -87.40 30
NA 12:00:00 TS 26.70 -87.30 30
NA 15:00:00 TS 26.70 -87.22 35
NA 18:00:00 TS 26.70 -87.10 40
NA 21:00:00 TS 26.66 -86.91 45
NA 1863-05-26 00:00:00 TS 26.60 -86.70 50
NA 03:00:00 TS 26.55 -86.55 52
NA 06:00:00 TS 26.50 -86.40 55
NA 09:00:00 TS 26.44 -86.20 55
NA 12:00:00 TS 26.40 -86.00 55
NA 15:00:00 TS 26.38 -85.84 55
NA 18:00:00 TS 26.40 -85.70 55
NA 21:00:00 TS 26.44 -85.59 57
NA 1863-05-27 00:00:00 TS 26.50 -85.50 60
NA 03:00:00 TS 26.55 -85.40 60
NA 06:00:00 TS 26.60 -85.30 60
NA 09:00:00 TS 26.65 -85.19 65
NA 12:00:00 TS 26.70 -85.10 70
NA 15:00:00 TS 26.69 -85.03 72
NA 18:00:00 TS 26.80 -85.00 75
NA 21:00:00 TS 27.19 -84.99 77
NA 1863-05-28 00:00:00 TS 27.70 -85.00 80
NA 03:00:00 TS 28.15 -85.00 82
NA 06:00:00 TS 28.60 -85.00 85
NA 09:00:00 TS 29.04 -84.95 87
NA 12:00:00 TS 29.50 -85.00 90 968
NA 15:00:00 TS 29.97 -85.31 75
NA 18:00:00 TS 30.50 -85.70 60
NA 21:00:00 TS 31.13 -85.97 50
NA 1863-05-29 00:00:00 TS 31.80 -86.20 40
NA 03:00:00 TS 32.45 -86.45 35
NA 06:00:00 TS 33.10 -86.70 30
NA 09:00:00 TS 33.75 -86.94 30
NA 12:00:00 TS 34.40 -87.20 30
NA 15:00:00 TS 35.06 -87.50 30
NA 18:00:00 TS 35.70 -87.80 30
NA 21:00:00 TS 36.27 -88.13 30
NA 1863-05-30 00:00:00 ET 36.90 -88.30 30
NA 03:00:00 ET 37.71 -88.16 30
NA 06:00:00 ET 38.60 -87.80 30
NA 09:00:00 ET 39.37 -87.44 30
NA 12:00:00 ET 40.30 -86.80 30
NA 15:00:00 ET 41.44 -85.79 30
NA 18:00:00 ET 43.00 -84.30 30
NA 21:00:00 ET 45.11 -82.27 30
NA 1863-05-31 00:00:00 ET 47.50 -79.80 30

Source Information

Agency Information
USA
TOKYO
CMA
HKO
NEWDELHI
REUNION
BOM
NADI
WELLINGTON
DS824
TD9636
TD9635
NEUMANN
MLC

All available IBTrACS Data

SEASON BASIN SUBBASIN ISO_TIME_________ NATURE LAT LON DIST2LAND LANDFALL IFLAG USA SSHS MLC LAT MLC LON MLC CLASS MLC WIND MLC PRES STORM SPEED STORM DIR
Year degrees north degrees east km km 1 degrees north degrees east kts mb kts degrees
1863 NA GM 1863-05-24 18:00:00 TS 27.00 -88.00 247 247 _____________O -1 27.00 -88.00 TD 30 3 109
1863 NA GM 21:00:00 TS 26.95 -87.84 257 257 _____________P -1 26.95 -87.84 TD 30 3 111
1863 NA GM 1863-05-25 00:00:00 TS 26.90 -87.70 271 271 _____________O -1 26.90 -87.70 TD 30 2 115
1863 NA GM 03:00:00 TS 26.85 -87.59 286 286 _____________P -1 26.85 -87.59 TD 30 2 120
1863 NA GM 06:00:00 TS 26.80 -87.50 291 291 _____________O -1 26.80 -87.50 TD 30 2 122
1863 NA GM 09:00:00 TS 26.74 -87.40 306 306 _____________P -1 26.74 -87.40 TD 30 2 120
1863 NA GM 12:00:00 TS 26.70 -87.30 311 311 _____________O -1 26.70 -87.30 TD 30 2 105
1863 NA GM 15:00:00 TS 26.70 -87.22 317 317 _____________P -1 26.70 -87.22 TD 35 2 90
1863 NA GM 18:00:00 TS 26.70 -87.10 323 323 _____________O -1 26.70 -87.10 TS 40 3 99
1863 NA GM 21:00:00 TS 26.66 -86.91 335 335 _____________P -1 26.66 -86.91 TS 45 4 106
1863 NA GM 1863-05-26 00:00:00 TS 26.60 -86.70 356 356 _____________O -1 26.60 -86.70 TS 50 3 109
1863 NA GM 03:00:00 TS 26.55 -86.55 371 370 _____________P -1 26.55 -86.55 TS 52 3 111
1863 NA GM 06:00:00 TS 26.50 -86.40 370 361 _____________O -1 26.50 -86.40 TS 55 3 109
1863 NA GM 09:00:00 TS 26.44 -86.20 366 349 _____________P -1 26.44 -86.20 TS 55 4 106
1863 NA GM 12:00:00 TS 26.40 -86.00 349 331 _____________O -1 26.40 -86.00 TS 55 3 100
1863 NA GM 15:00:00 TS 26.38 -85.84 331 323 _____________P -1 26.38 -85.84 TS 55 3 90
1863 NA GM 18:00:00 TS 26.40 -85.70 323 313 _____________O -1 26.40 -85.70 TS 55 2 75
1863 NA GM 21:00:00 TS 26.44 -85.59 313 300 _____________P -1 26.44 -85.59 TS 57 2 60
1863 NA GM 1863-05-27 00:00:00 TS 26.50 -85.50 300 291 _____________O -1 26.50 -85.50 TS 60 2 58
1863 NA GM 03:00:00 TS 26.55 -85.40 286 277 _____________P -1 26.55 -85.40 TS 60 2 60
1863 NA GM 06:00:00 TS 26.60 -85.30 277 269 _____________O -1 26.60 -85.30 TS 60 2 61
1863 NA GM 09:00:00 TS 26.65 -85.19 263 255 _____________P -1 26.65 -85.19 TS 65 2 60
1863 NA GM 12:00:00 TS 26.70 -85.10 255 246 _____________O -1 26.70 -85.10 HU 70 1 74
1863 NA GM 15:00:00 TS 26.69 -85.03 246 240 _____________P -1 26.69 -85.03 HU 72 1 40
1863 NA GM 18:00:00 TS 26.80 -85.00 240 221 _____________O -1 26.80 -85.00 HU 75 5 5
1863 NA GM 21:00:00 TS 27.19 -84.99 221 207 _____________P -1 27.19 -84.99 HU 77 9 0
1863 NA GM 1863-05-28 00:00:00 TS 27.70 -85.00 207 178 _____________O -1 27.70 -85.00 HU 80 10 359
1863 NA GM 03:00:00 TS 28.15 -85.00 167 122 _____________P -1 28.15 -85.00 HU 82 9 0
1863 NA GM 06:00:00 TS 28.60 -85.00 122 78 _____________O -1 28.60 -85.00 HU 85 9 3
1863 NA GM 09:00:00 TS 29.04 -84.95 78 22 _____________P -1 29.04 -84.95 HU 87 9 0
1863 NA GM 12:00:00 TS 29.50 -85.00 22 0 _____________O -1 29.50 -85.00 HU 90 968 10 341
1863 NA NA 15:00:00 TS 29.97 -85.31 0 0 _____________P -1 29.97 -85.31 HU 75 12 329
1863 NA NA 18:00:00 TS 30.50 -85.70 0 0 _____________O -1 30.50 -85.70 TS 60 13 334
1863 NA NA 21:00:00 TS 31.13 -85.97 0 0 _____________P -1 31.13 -85.97 TS 50 14 342
1863 NA NA 1863-05-29 00:00:00 TS 31.80 -86.20 0 0 _____________O -1 31.80 -86.20 TS 40 14 343
1863 NA NA 03:00:00 TS 32.45 -86.45 0 0 _____________P -1 32.45 -86.45 TS 35 14 342
1863 NA NA 06:00:00 TS 33.10 -86.70 0 0 _____________O -1 33.10 -86.70 TD 30 14 342
1863 NA NA 09:00:00 TS 33.75 -86.94 0 0 _____________P -1 33.75 -86.94 TD 30 14 342
1863 NA NA 12:00:00 TS 34.40 -87.20 0 0 _____________O -1 34.40 -87.20 TD 30 14 341
1863 NA NA 15:00:00 TS 35.06 -87.50 0 0 _____________P -1 35.06 -87.50 TD 30 14 339
1863 NA NA 18:00:00 TS 35.70 -87.80 0 0 _____________O -1 35.70 -87.80 TD 30 13 337
1863 NA NA 21:00:00 TS 36.27 -88.13 0 0 _____________P -1 36.27 -88.13 TD 30 13 341
1863 NA NA 1863-05-30 00:00:00 ET 36.90 -88.30 0 0 _____________O -1 36.90 -88.30 EX 30 14 359
1863 NA NA 03:00:00 ET 37.71 -88.16 0 0 _____________P -1 37.71 -88.16 EX 30 17 13
1863 NA NA 06:00:00 ET 38.60 -87.80 0 0 _____________O -1 38.60 -87.80 EX 30 18 19
1863 NA NA 09:00:00 ET 39.37 -87.44 0 0 _____________P -1 39.37 -87.44 EX 30 19 24
1863 NA NA 12:00:00 ET 40.30 -86.80 0 0 _____________O -1 40.30 -86.80 EX 30 24 31
1863 NA NA 15:00:00 ET 41.44 -85.79 0 0 _____________P -1 41.44 -85.79 EX 30 33 35
1863 NA NA 18:00:00 ET 43.00 -84.30 0 0 _____________O -1 43.00 -84.30 EX 30 45 35
1863 NA NA 21:00:00 ET 45.11 -82.27 0 0 _____________P -1 45.11 -82.27 EX 30 55 35
1863 NA NA 1863-05-31 00:00:00 ET 47.50 -79.80 0 _____________O -1 47.50 -79.80 EX 30 58 35